Time;durP1;ratioP1;P1;durP2;ratioP2;P2;SDS_P1;SDS_P2;PMS_P1;PMS_P2;Temp;Humidity;BMP_temperature;BMP_pressure;BME280_temperature;BME280_humidity;BME280_pressure;Samples;Min_cycle;Max_cycle;Signal;HPM_P1;HPM_P2
2021/12/25 00:01:10;;;;;;;5.35;1.27;;;-1.10;99.90;;;;;;4832961;29;20449;-85
2021/12/25 00:03:37;;;;;;;4.78;0.93;;;-1.20;99.90;;;;;;4826117;29;20048;-85
2021/12/25 00:06:03;;;;;;;4.70;0.85;;;-1.20;99.90;;;;;;4827623;29;20045;-85
2021/12/25 00:08:31;;;;;;;5.93;0.70;;;-1.20;99.90;;;;;;4826947;29;20121;-82
2021/12/25 00:10:58;;;;;;;1.80;0.70;;;-1.30;99.90;;;;;;4816888;29;20140;-85
2021/12/25 00:13:25;;;;;;;4.38;1.05;;;-1.30;99.90;;;;;;4825251;29;20376;-84
2021/12/25 00:15:52;;;;;;;4.13;0.90;;;-1.30;99.90;;;;;;4822846;29;20068;-84
2021/12/25 00:18:18;;;;;;;3.30;0.80;;;-1.30;99.90;;;;;;4822573;29;20448;-84
2021/12/25 00:20:44;;;;;;;2.10;0.70;;;-1.40;99.90;;;;;;4822479;29;20396;-84
2021/12/25 00:23:10;;;;;;;1.88;0.60;;;-1.50;99.90;;;;;;4836079;29;20493;-84
2021/12/25 00:25:42;;;;;;;6.82;0.93;;;-1.50;99.90;;;;;;4829297;29;20041;-85
2021/12/25 00:33:52;;;;;;;5.85;0.90;;;-1.60;99.90;;;;;;4817408;29;20041;-83
2021/12/25 00:36:21;;;;;;;2.08;0.70;;;-1.60;99.90;;;;;;4837240;29;20053;-82
2021/12/25 00:38:47;;;;;;;1.35;0.60;;;-1.60;99.90;;;;;;4857440;29;21270;-77
2021/12/25 00:41:16;;;;;;;3.65;0.85;;;-1.70;99.90;;;;;;4835596;29;20148;-83
2021/12/25 00:43:42;;;;;;;2.70;0.70;;;-1.70;99.90;;;;;;4829356;29;20484;-81
2021/12/25 00:46:08;;;;;;;3.78;0.93;;;-1.70;99.90;;;;;;4826407;29;20078;-82
2021/12/25 00:48:34;;;;;;;5.75;0.68;;;-1.70;99.90;;;;;;4842589;29;20046;-83
2021/12/25 00:51:04;;;;;;;4.13;0.90;;;-1.70;99.90;;;;;;4842888;29;20361;-80
2021/12/25 00:53:30;;;;;;;2.85;0.80;;;-1.70;99.90;;;;;;4828124;29;20069;-80
2021/12/25 00:55:56;;;;;;;3.70;0.70;;;-1.80;99.90;;;;;;4821758;29;20056;-82
2021/12/25 00:58:22;;;;;;;1.85;0.70;;;-1.90;99.90;;;;;;4819809;29;20471;-81
2021/12/25 01:00:48;;;;;;;3.42;1.00;;;-1.80;99.90;;;;;;4816889;29;20134;-80
2021/12/25 01:03:14;;;;;;;2.03;0.75;;;-1.90;99.90;;;;;;4845121;29;20056;-80
2021/12/25 01:05:40;;;;;;;2.60;0.70;;;-1.90;99.90;;;;;;4818122;29;20752;-82
2021/12/25 01:08:06;;;;;;;2.78;0.82;;;-1.90;99.90;;;;;;4839992;29;20097;-81
2021/12/25 01:10:33;;;;;;;3.05;0.50;;;-1.90;99.90;;;;;;4839370;29;20156;-82
2021/12/25 01:13:12;;;;;;;3.03;0.73;;;-2.00;99.90;;;;;;4848699;29;20062;-81
2021/12/25 01:16:04;;;;;;;3.00;0.60;;;-2.00;99.90;;;;;;4829616;29;20049;-82
2021/12/25 01:26:52;;;;;;;2.35;0.75;;;-2.10;99.90;;;;;;4843096;29;20072;-82
2021/12/25 01:29:26;;;;;;;2.72;0.80;;;-2.20;99.90;;;;;;4840528;29;20057;-81
2021/12/25 01:39:53;;;;;;;3.53;0.98;;;-2.20;99.90;;;;;;4838654;29;20050;-81
2021/12/25 01:47:48;;;;;;;3.10;0.77;;;-2.20;99.90;;;;;;4844175;29;20200;-81
2021/12/25 01:50:17;;;;;;;3.17;0.73;;;-2.30;99.90;;;;;;4821323;29;20049;-81
2021/12/25 01:52:43;;;;;;;2.85;0.85;;;-2.30;99.90;;;;;;4844436;29;20046;-81
2021/12/25 01:55:13;;;;;;;3.30;0.60;;;-2.30;99.90;;;;;;4822782;29;20406;-81
2021/12/25 01:57:40;;;;;;;2.33;0.57;;;-2.30;99.90;;;;;;4843063;29;20045;-81
2021/12/25 02:00:20;;;;;;;2.35;0.40;;;-2.40;99.90;;;;;;4827800;29;20046;-82
2021/12/25 02:02:47;;;;;;;1.13;0.40;;;-2.40;99.90;;;;;;4840283;29;20112;-82
2021/12/25 02:05:13;;;;;;;3.53;0.57;;;-2.50;99.90;;;;;;4827173;29;20540;-82
2021/12/25 02:07:39;;;;;;;4.38;0.70;;;-2.50;99.90;;;;;;4820663;29;20045;-82
2021/12/25 02:10:07;;;;;;;2.92;0.60;;;-2.60;99.90;;;;;;4817231;29;20064;-82
2021/12/25 02:12:34;;;;;;;2.30;0.50;;;-2.60;99.90;;;;;;4828760;29;20140;-82
2021/12/25 02:15:08;;;;;;;;;;;-2.60;99.90;;;;;;4837132;29;20045;-81
2021/12/25 02:17:53;;;;;;;0.93;0.40;;;-2.60;99.90;;;;;;4818429;29;19924;-82
2021/12/25 02:20:28;;;;;;;1.20;0.52;;;-2.60;99.90;;;;;;4844266;29;20073;-82
2021/12/25 02:23:00;;;;;;;1.15;0.40;;;-2.60;99.90;;;;;;4843294;29;20033;-83
2021/12/25 02:25:28;;;;;;;4.00;0.77;;;-2.70;99.90;;;;;;4823420;29;20055;-83
2021/12/25 02:27:54;;;;;;;2.08;0.40;;;-2.70;99.90;;;;;;4839798;29;20049;-83
2021/12/25 02:30:20;;;;;;;1.50;0.38;;;-2.60;99.90;;;;;;4782740;29;20042;-83
2021/12/25 02:32:46;;;;;;;1.63;0.80;;;-2.60;99.90;;;;;;4811269;29;20121;-83
2021/12/25 02:35:16;;;;;;;2.40;0.55;;;-2.60;99.90;;;;;;4810623;29;20102;-82
2021/12/25 02:37:44;;;;;;;1.95;0.45;;;-2.70;99.90;;;;;;4832499;29;20510;-83
2021/12/25 02:40:12;;;;;;;2.40;0.40;;;-2.80;99.90;;;;;;4818798;29;20405;-83
2021/12/25 02:42:38;;;;;;;0.70;0.40;;;-2.70;99.90;;;;;;4811984;29;20040;-83
2021/12/25 02:45:05;;;;;;;3.35;0.70;;;-2.70;99.90;;;;;;4821036;29;20449;-83
2021/12/25 02:47:32;;;;;;;2.17;0.50;;;-2.70;99.90;;;;;;4815611;29;20049;-83
2021/12/25 02:49:58;;;;;;;1.50;0.55;;;-2.80;99.90;;;;;;4840904;29;20448;-83
2021/12/25 02:52:24;;;;;;;1.60;0.30;;;-2.80;99.90;;;;;;4840900;29;20037;-83
2021/12/25 02:54:49;;;;;;;2.13;0.38;;;-2.80;99.90;;;;;;4804043;29;20045;-84
2021/12/25 02:57:16;;;;;;;3.00;0.63;;;-2.80;99.90;;;;;;4825749;29;20045;-83
2021/12/25 02:59:41;;;;;;;0.77;0.30;;;-2.70;99.90;;;;;;4820104;29;20173;-83
2021/12/25 03:02:10;;;;;;;2.05;0.30;;;-2.80;99.90;;;;;;4825056;29;20041;-84
2021/12/25 03:04:39;;;;;;;0.43;0.40;;;-2.90;99.90;;;;;;4817858;29;20050;-84
2021/12/25 03:07:05;;;;;;;2.53;0.50;;;-2.90;99.90;;;;;;4857751;29;20403;-84
2021/12/25 03:09:32;;;;;;;0.95;0.40;;;-2.90;99.90;;;;;;4834479;29;20042;-83
2021/12/25 03:11:59;;;;;;;1.55;0.35;;;-2.90;99.90;;;;;;4824340;29;20401;-84
2021/12/25 03:14:35;;;;;;;0.93;0.30;;;-3.00;99.90;;;;;;4821561;29;20037;-84
2021/12/25 03:17:01;;;;;;;0.80;0.30;;;-3.00;99.90;;;;;;4830265;29;20086;-84
2021/12/25 03:19:31;;;;;;;3.47;0.60;;;-3.00;99.90;;;;;;4822104;29;20046;-82
2021/12/25 03:22:02;;;;;;;0.85;0.40;;;-3.00;99.90;;;;;;4805965;29;20041;-84
2021/12/25 03:24:29;;;;;;;0.85;0.40;;;-3.10;99.90;;;;;;4819905;29;20817;-84
2021/12/25 03:26:57;;;;;;;1.67;0.40;;;-3.10;99.90;;;;;;4838585;29;20144;-86
2021/12/25 03:29:26;;;;;;;2.10;0.47;;;-3.10;99.90;;;;;;4823456;29;20487;-84
2021/12/25 03:31:53;;;;;;;0.82;0.35;;;-3.10;99.90;;;;;;4828164;29;20488;-84
2021/12/25 03:34:19;;;;;;;0.75;0.30;;;-3.10;99.90;;;;;;4841901;29;20050;-86
2021/12/25 03:36:45;;;;;;;2.53;0.30;;;-3.10;99.90;;;;;;4822116;29;20041;-85
2021/12/25 03:39:13;;;;;;;0.63;0.30;;;-3.20;99.90;;;;;;4822776;29;20042;-86
2021/12/25 03:41:39;;;;;;;0.85;0.40;;;-3.10;99.90;;;;;;4823975;29;20541;-84
2021/12/25 03:44:05;;;;;;;3.13;1.10;;;-3.20;99.90;;;;;;4814074;29;20050;-84
2021/12/25 03:46:31;;;;;;;1.67;0.50;;;-3.20;99.90;;;;;;4834046;29;20500;-84
2021/12/25 03:59:38;;;;;;;2.55;0.47;;;-3.30;99.90;;;;;;4814891;29;20058;-85
2021/12/25 04:02:11;;;;;;;1.73;0.57;;;-3.30;99.90;;;;;;4809401;29;20065;-86
2021/12/25 04:04:42;;;;;;;2.33;0.70;;;-3.20;99.90;;;;;;4850525;29;20465;-85
2021/12/25 04:07:18;;;;;;;1.90;0.50;;;-3.30;99.90;;;;;;4831300;29;20490;-84
2021/12/25 04:09:45;;;;;;;1.67;0.45;;;-3.30;99.90;;;;;;4831745;29;20053;-85
2021/12/25 04:12:12;;;;;;;5.88;0.60;;;-3.30;99.90;;;;;;4831312;29;20065;-84
2021/12/25 04:14:39;;;;;;;0.50;0.30;;;-3.40;99.90;;;;;;4828644;29;20061;-85
2021/12/25 04:17:06;;;;;;;1.42;0.45;;;-3.40;99.90;;;;;;4825437;29;20492;-85
2021/12/25 04:19:32;;;;;;;3.28;0.40;;;-3.40;99.90;;;;;;4831333;29;20098;-84
2021/12/25 04:22:06;;;;;;;3.20;0.50;;;-3.40;99.90;;;;;;4831147;29;20045;-85
2021/12/25 04:24:37;;;;;;;2.83;0.50;;;-3.40;99.90;;;;;;4831006;29;20048;-85
2021/12/25 04:27:06;;;;;;;0.98;0.38;;;-3.40;99.90;;;;;;4820092;29;20053;-85
2021/12/25 04:29:39;;;;;;;1.98;0.50;;;-3.50;99.90;;;;;;4828002;29;20098;-85
2021/12/25 05:02:08;;;;;;;3.53;0.38;;;-3.70;99.90;;;;;;4840324;29;20049;-85
2021/12/25 05:04:40;;;;;;;1.85;0.55;;;-3.80;99.90;;;;;;4819696;29;20073;-85
2021/12/25 05:07:06;;;;;;;1.52;0.35;;;-3.70;99.90;;;;;;4830890;29;20041;-85
2021/12/25 05:09:32;;;;;;;1.20;0.50;;;-3.80;99.90;;;;;;4830346;29;20041;-85
2021/12/25 05:11:58;;;;;;;1.88;0.60;;;-3.80;99.90;;;;;;4843758;29;20097;-84
2021/12/25 05:14:23;;;;;;;1.95;0.50;;;-3.80;99.90;;;;;;4830426;29;20069;-86
2021/12/25 05:16:49;;;;;;;1.75;0.30;;;-3.80;99.90;;;;;;4830605;29;20612;-85
2021/12/25 05:19:15;;;;;;;2.33;0.40;;;-3.70;99.90;;;;;;4799648;29;20050;-85
2021/12/25 05:21:41;;;;;;;1.77;0.35;;;-3.70;99.90;;;;;;4845629;29;20042;-85
2021/12/25 05:24:06;;;;;;;0.47;0.35;;;-3.70;99.90;;;;;;4823539;29;20045;-85
2021/12/25 05:26:33;;;;;;;0.75;0.40;;;-3.70;99.90;;;;;;4811994;29;20048;-84
2021/12/25 05:29:00;;;;;;;;;;;-3.70;99.90;;;;;;4840761;29;20037;-84
2021/12/25 05:31:31;;;;;;;0.73;0.32;;;-3.70;99.90;;;;;;4830209;29;19987;-85
2021/12/25 05:33:58;;;;;;;1.02;0.40;;;-3.70;99.90;;;;;;4828751;29;20720;-84
2021/12/25 05:36:26;;;;;;;2.65;0.55;;;-3.80;99.90;;;;;;4810034;29;20410;-84
2021/12/25 05:38:56;;;;;;;1.48;0.40;;;-3.80;99.90;;;;;;4840984;29;20045;-84
2021/12/25 05:41:23;;;;;;;3.13;0.88;;;-3.80;99.90;;;;;;4829761;29;20049;-84
2021/12/25 05:43:49;;;;;;;0.68;0.40;;;-3.70;99.90;;;;;;4813352;29;20042;-83
2021/12/25 05:46:14;;;;;;;1.80;0.40;;;-3.80;99.90;;;;;;4837618;29;20049;-84
2021/12/25 05:48:40;;;;;;;3.20;0.40;;;-3.80;99.90;;;;;;4834197;29;20045;-86
2021/12/25 05:51:06;;;;;;;1.17;0.30;;;-3.80;99.90;;;;;;4830280;29;20491;-85
2021/12/25 05:53:32;;;;;;;2.05;0.57;;;-3.90;99.90;;;;;;4841901;29;20194;-85
2021/12/25 05:55:58;;;;;;;1.33;0.40;;;-3.90;99.90;;;;;;4844796;29;20501;-87
2021/12/25 05:58:24;;;;;;;2.10;0.40;;;-3.90;99.90;;;;;;4811413;29;20126;-84
2021/12/25 06:00:50;;;;;;;2.63;0.50;;;-3.80;99.90;;;;;;4821801;29;20041;-84
2021/12/25 06:03:16;;;;;;;1.10;0.40;;;-3.80;99.90;;;;;;4852471;29;20124;-84
2021/12/25 06:05:42;;;;;;;2.90;0.40;;;-3.80;99.90;;;;;;4815630;29;20033;-83
2021/12/25 06:08:08;;;;;;;1.85;0.60;;;-3.80;99.90;;;;;;4812131;29;20132;-82
2021/12/25 06:10:34;;;;;;;1.02;0.43;;;-3.80;99.90;;;;;;4799050;29;20041;-84
2021/12/25 06:13:00;;;;;;;1.55;0.40;;;-3.70;99.90;;;;;;4845335;29;20057;-83
2021/12/25 06:15:28;;;;;;;1.70;0.38;;;-3.70;99.90;;;;;;4830766;29;20050;-84
2021/12/25 06:17:55;;;;;;;1.45;0.40;;;-3.70;99.90;;;;;;4834102;29;20041;-85
2021/12/25 06:20:21;;;;;;;1.08;0.40;;;-3.70;99.90;;;;;;4839293;29;20145;-82
2021/12/25 06:22:46;;;;;;;2.08;0.38;;;-3.70;99.90;;;;;;4811311;29;20215;-84
2021/12/25 06:25:12;;;;;;;4.13;0.40;;;-3.80;99.90;;;;;;4829527;29;20041;-84
2021/12/25 06:27:38;;;;;;;2.33;0.38;;;-3.70;99.90;;;;;;4814049;29;20045;-84
2021/12/25 06:30:06;;;;;;;0.68;0.43;;;-3.70;99.90;;;;;;4844623;29;20105;-84
2021/12/25 06:32:35;;;;;;;0.90;0.40;;;-3.70;99.90;;;;;;4845215;29;20078;-84
2021/12/25 06:35:00;;;;;;;3.78;0.50;;;-3.70;99.90;;;;;;4827977;29;20076;-84
2021/12/25 06:37:26;;;;;;;2.90;0.60;;;-3.80;99.90;;;;;;4848954;29;20074;-84
2021/12/25 06:39:52;;;;;;;2.38;0.57;;;-3.80;99.90;;;;;;4813673;29;20043;-84
2021/12/25 06:42:18;;;;;;;1.30;0.45;;;-3.70;99.90;;;;;;4829255;29;20380;-84
2021/12/25 06:44:44;;;;;;;2.15;0.50;;;-3.80;99.90;;;;;;4841452;29;20048;-83
2021/12/25 06:47:10;;;;;;;3.00;0.68;;;-3.70;99.90;;;;;;4810378;29;20045;-83
2021/12/25 06:49:35;;;;;;;1.45;0.55;;;-3.70;99.90;;;;;;4844001;29;20826;-82
2021/12/25 06:52:02;;;;;;;1.73;0.45;;;-3.70;99.90;;;;;;4843980;29;20041;-83
2021/12/25 06:54:27;;;;;;;2.95;0.50;;;-3.80;99.90;;;;;;4811373;29;20046;-84
2021/12/25 06:56:53;;;;;;;1.83;0.55;;;-3.80;99.90;;;;;;4844190;29;20044;-85
2021/12/25 06:59:21;;;;;;;1.33;0.50;;;-3.80;99.90;;;;;;4813449;29;20048;-85
2021/12/25 07:01:48;;;;;;;1.48;0.35;;;-3.80;99.90;;;;;;4840121;29;20038;-86
2021/12/25 07:04:13;;;;;;;;;;;-3.80;99.90;;;;;;4836562;29;20081;-81
2021/12/25 07:06:40;;;;;;;2.35;0.70;;;-3.80;99.90;;;;;;4828412;29;19984;-81
2021/12/25 07:09:06;;;;;;;2.83;0.60;;;-3.80;99.90;;;;;;4827456;29;20060;-81
2021/12/25 07:11:33;;;;;;;1.83;0.55;;;-3.90;99.90;;;;;;4841498;29;20125;-80
2021/12/25 07:14:02;;;;;;;2.25;0.60;;;-3.90;99.90;;;;;;4828115;29;20104;-81
2021/12/25 07:16:28;;;;;;;5.13;0.68;;;-3.90;99.90;;;;;;4828842;29;20049;-81
2021/12/25 07:18:53;;;;;;;3.60;0.70;;;-3.90;99.90;;;;;;4843856;29;20109;-82
2021/12/25 07:21:19;;;;;;;2.25;0.93;;;-4.00;99.90;;;;;;4828401;29;20049;-81
2021/12/25 07:23:45;;;;;;;2.20;0.52;;;-4.00;99.90;;;;;;4843722;29;20125;-82
2021/12/25 07:26:11;;;;;;;1.67;0.50;;;-4.00;99.90;;;;;;4828698;29;20432;-81
2021/12/25 07:28:37;;;;;;;3.60;0.85;;;-4.00;99.90;;;;;;4843526;29;20082;-82
2021/12/25 07:31:02;;;;;;;0.85;0.35;;;-4.00;99.90;;;;;;4838754;29;20463;-85
2021/12/25 07:33:29;;;;;;;2.08;0.30;;;-4.00;99.90;;;;;;4830633;29;20106;-86
2021/12/25 07:35:56;;;;;;;4.43;0.70;;;-4.10;99.90;;;;;;4835232;29;20129;-87
2021/12/25 07:38:22;;;;;;;3.65;0.57;;;-4.10;99.90;;;;;;4849590;29;20427;-85
2021/12/25 07:40:49;;;;;;;1.98;0.70;;;-4.10;99.90;;;;;;4849026;29;20350;-83
2021/12/25 07:43:17;;;;;;;1.08;0.40;;;-4.10;99.90;;;;;;4826270;29;20041;-85
2021/12/25 07:45:46;;;;;;;3.08;0.73;;;-4.10;99.90;;;;;;4831112;29;20050;-84
2021/12/25 07:48:12;;;;;;;2.97;0.32;;;-4.10;99.90;;;;;;4846410;29;20052;-83
2021/12/25 07:50:40;;;;;;;2.35;0.57;;;-4.20;99.90;;;;;;4831869;29;20387;-83
2021/12/25 07:53:06;;;;;;;2.83;0.50;;;-4.10;99.90;;;;;;4815576;29;20412;-84
2021/12/25 07:55:32;;;;;;;;;;;-4.10;99.90;;;;;;4849361;29;20052;-85
2021/12/25 07:58:01;;;;;;;3.25;0.82;;;-4.10;99.90;;;;;;4848524;29;19924;-84
2021/12/25 08:00:27;;;;;;;4.25;0.60;;;-4.10;99.90;;;;;;4840984;29;20117;-84
2021/12/25 08:02:53;;;;;;;2.53;0.90;;;-4.10;99.90;;;;;;4830716;29;20038;-84
2021/12/25 08:05:20;;;;;;;1.17;0.43;;;-4.10;99.90;;;;;;4815970;29;20087;-84
2021/12/25 08:07:47;;;;;;;1.13;0.40;;;-4.20;99.90;;;;;;4813872;29;20052;-84
2021/12/25 08:10:13;;;;;;;;;;;-4.20;99.90;;;;;;4850080;29;20373;-84
2021/12/25 08:12:56;;;;;;;1.52;0.65;;;-4.20;99.90;;;;;;4865595;29;20378;-84
2021/12/25 08:15:28;;;;;;;3.15;0.60;;;-4.20;99.90;;;;;;4830099;29;20373;-84
2021/12/25 08:17:55;;;;;;;1.90;0.65;;;-4.20;99.90;;;;;;4840930;29;20380;-84
2021/12/25 08:20:22;;;;;;;3.63;0.50;;;-4.20;99.90;;;;;;4818956;29;20041;-84
2021/12/25 08:22:47;;;;;;;;;;;-4.20;99.90;;;;;;4834322;29;20046;-84
2021/12/25 08:25:14;;;;;;;2.17;0.60;;;-4.20;99.90;;;;;;4833693;29;19968;-84
2021/12/25 08:27:42;;;;;;;1.40;0.60;;;-4.20;99.90;;;;;;4818952;29;20045;-85
2021/12/25 08:30:11;;;;;;;1.67;0.68;;;-4.20;99.90;;;;;;4817788;29;20041;-84
2021/12/25 08:32:38;;;;;;;4.07;0.70;;;-4.20;99.90;;;;;;4825717;29;20072;-84
2021/12/25 08:35:05;;;;;;;2.67;0.50;;;-4.10;99.90;;;;;;4834219;29;20045;-84
2021/12/25 08:37:31;;;;;;;2.10;0.70;;;-4.20;99.90;;;;;;4849290;29;20084;-83
2021/12/25 08:39:57;;;;;;;;;;;-4.10;99.90;;;;;;4809470;29;20042;-84
2021/12/25 08:42:23;;;;;;;2.10;0.60;;;-4.10;99.90;;;;;;4810137;29;19920;-84
2021/12/25 08:47:30;;;;;;;1.50;0.80;;;-4.10;99.90;;;;;;4833376;29;20120;-83
2021/12/25 08:49:56;;;;;;;0.90;0.50;;;-4.00;99.90;;;;;;4824922;29;20037;-83
2021/12/25 08:52:23;;;;;;;2.92;0.60;;;-4.00;99.90;;;;;;4813017;29;20122;-84
2021/12/25 08:54:50;;;;;;;3.63;0.75;;;-4.00;99.90;;;;;;4812497;29;20125;-83
2021/12/25 08:57:21;;;;;;;2.60;0.82;;;-4.00;99.90;;;;;;4827587;29;20373;-84
2021/12/25 08:59:48;;;;;;;3.30;0.60;;;-4.00;99.90;;;;;;4816916;29;20037;-83
2021/12/25 09:02:16;;;;;;;2.47;0.60;;;-3.90;99.90;;;;;;4813246;29;20105;-84
2021/12/25 09:04:45;;;;;;;2.63;0.70;;;-3.90;99.90;;;;;;4842543;29;20049;-85
2021/12/25 09:07:12;;;;;;;2.17;0.50;;;-3.90;99.90;;;;;;4844238;29;20045;-84
2021/12/25 09:09:38;;;;;;;2.63;0.70;;;-3.90;99.90;;;;;;4815047;29;20041;-81
2021/12/25 09:12:06;;;;;;;1.33;0.50;;;-3.80;99.90;;;;;;4862526;29;20064;-86
2021/12/25 09:14:31;;;;;;;3.83;0.70;;;-3.80;99.90;;;;;;4864649;29;20057;-86
2021/12/25 09:16:57;;;;;;;4.57;0.80;;;-3.70;99.90;;;;;;4841525;29;20456;-85
2021/12/25 09:19:23;;;;;;;1.52;0.68;;;-3.70;99.90;;;;;;4810719;29;20050;-86
2021/12/25 09:21:49;;;;;;;3.42;0.70;;;-3.70;99.90;;;;;;4817858;29;20128;-84
2021/12/25 09:24:15;;;;;;;2.55;0.50;;;-3.60;99.90;;;;;;4827814;29;20115;-85
2021/12/25 09:26:42;;;;;;;3.92;0.82;;;-3.60;99.90;;;;;;4806029;29;20045;-85
2021/12/25 09:29:08;;;;;;;;;;;-3.60;99.90;;;;;;4830574;29;20140;-86
2021/12/25 09:31:34;;;;;;;3.03;0.70;;;-3.50;99.90;;;;;;4826870;29;19967;-86
2021/12/25 09:34:00;;;;;;;2.30;0.82;;;-3.50;99.90;;;;;;4846014;29;20053;-86
2021/12/25 09:36:27;;;;;;;2.65;0.68;;;-3.50;99.90;;;;;;4814862;29;20205;-86
2021/12/25 09:38:53;;;;;;;3.25;1.00;;;-3.50;99.90;;;;;;4815943;29;20041;-86
2021/12/25 09:41:19;;;;;;;2.15;0.70;;;-3.40;99.90;;;;;;4823664;29;20110;-85
2021/12/25 09:43:48;;;;;;;2.72;0.77;;;-3.30;99.90;;;;;;4829281;29;20049;-83
2021/12/25 09:46:15;;;;;;;1.40;0.60;;;-3.30;99.90;;;;;;4826885;29;20056;-83
2021/12/25 09:48:41;;;;;;;1.73;0.77;;;-3.30;99.90;;;;;;4826066;29;20084;-83
2021/12/25 09:51:10;;;;;;;2.72;0.50;;;-3.30;99.90;;;;;;4821039;29;20046;-83
2021/12/25 09:53:36;;;;;;;1.98;0.65;;;-3.30;99.90;;;;;;4828550;29;20730;-85
2021/12/25 09:56:03;;;;;;;1.52;0.80;;;-3.30;99.90;;;;;;4826415;29;20050;-86
2021/12/25 09:58:29;;;;;;;4.80;0.70;;;-3.20;99.90;;;;;;4834310;29;20404;-84
2021/12/25 10:00:57;;;;;;;1.85;0.60;;;-3.10;99.90;;;;;;4829374;29;20049;-84
2021/12/25 10:03:43;;;;;;;1.58;0.60;;;-3.20;99.90;;;;;;4825799;29;20038;-84
2021/12/25 10:06:09;;;;;;;2.15;0.90;;;-3.10;99.90;;;;;;4851061;29;20182;-84
2021/12/25 10:08:40;;;;;;;2.28;0.82;;;-3.10;99.90;;;;;;4821633;29;20081;-84
2021/12/25 10:11:06;;;;;;;2.35;0.82;;;-3.10;99.90;;;;;;4833165;29;20103;-84
2021/12/25 10:13:41;;;;;;;1.63;0.77;;;-3.10;99.90;;;;;;4818490;29;20097;-84
2021/12/25 10:16:19;;;;;;;2.75;0.70;;;-3.10;99.90;;;;;;4819207;29;20046;-87
2021/12/25 10:18:46;;;;;;;3.42;0.95;;;-3.00;99.90;;;;;;4822789;29;20042;-88
2021/12/25 10:21:19;;;;;;;4.00;0.80;;;-3.00;99.90;;;;;;4829465;29;20064;-84
2021/12/25 10:24:00;;;;;;;1.83;0.70;;;-2.80;99.90;;;;;;4819077;29;20048;-88
2021/12/25 10:26:26;;;;;;;3.55;0.70;;;-2.80;99.90;;;;;;4830380;29;20045;-87
2021/12/25 10:28:52;;;;;;;3.75;0.82;;;-2.80;99.90;;;;;;4833312;29;20052;-88
2021/12/25 10:31:35;;;;;;;0.90;0.60;;;-2.70;99.90;;;;;;4825784;29;20048;-86
2021/12/25 10:34:17;;;;;;;4.88;0.90;;;-2.60;99.90;;;;;;4826469;29;20076;-79
2021/12/25 10:36:43;;;;;;;5.03;0.80;;;-2.50;99.90;;;;;;4842640;29;20089;-84
2021/12/25 10:39:16;;;;;;;3.10;0.70;;;-2.40;99.90;;;;;;4828616;29;20176;-84
2021/12/25 10:42:09;;;;;;;3.75;0.93;;;-2.40;99.90;;;;;;4827997;29;20499;-87
2021/12/25 10:44:39;;;;;;;2.65;0.95;;;-2.20;99.90;;;;;;4836023;29;20045;-85
2021/12/25 10:47:25;;;;;;;2.88;0.57;;;-2.00;99.90;;;;;;4827537;29;20128;-85
2021/12/25 10:49:58;;;;;;;2.53;0.85;;;-1.90;99.90;;;;;;4814425;29;20037;-84
2021/12/25 10:52:27;;;;;;;1.85;0.90;;;-1.80;99.90;;;;;;4828393;29;20042;-85
2021/12/25 10:54:58;;;;;;;4.50;0.80;;;-1.70;99.90;;;;;;4841034;29;21768;-83
2021/12/25 10:57:38;;;;;;;3.08;0.93;;;-1.70;99.90;;;;;;4823689;29;20041;-85
2021/12/25 11:00:22;;;;;;;2.67;0.75;;;-1.60;99.90;;;;;;4842450;29;20041;-85
2021/12/25 11:02:52;;;;;;;3.30;0.85;;;-1.50;99.90;;;;;;4841139;29;20072;-86
2021/12/25 11:05:22;;;;;;;5.50;1.60;;;-1.20;99.90;;;;;;4828278;29;20050;-85
2021/12/25 11:08:22;;;;;;;3.30;0.70;;;-1.10;99.90;;;;;;4833593;29;20053;-84
2021/12/25 11:11:00;;;;;;;2.25;0.70;;;-0.90;99.90;;;;;;4849135;29;20061;-83
2021/12/25 11:13:44;;;;;;;1.83;0.70;;;-0.70;99.90;;;;;;4818003;29;20062;-83
2021/12/25 11:16:20;;;;;;;1.77;0.68;;;-0.70;99.90;;;;;;4805237;29;20050;-83
2021/12/25 11:19:09;;;;;;;2.75;0.70;;;-0.60;99.90;;;;;;4826202;29;20524;-81
2021/12/25 11:21:37;;;;;;;5.13;0.80;;;-0.40;99.90;;;;;;4799035;29;20038;-84
2021/12/25 11:24:05;;;;;;;1.17;0.70;;;-0.20;99.90;;;;;;4810204;29;20086;-78
2021/12/25 11:26:32;;;;;;;2.83;0.80;;;0.00;99.90;;;;;;4817633;29;20045;-84
2021/12/25 11:28:58;;;;;;;5.07;1.00;;;0.00;99.90;;;;;;4795049;29;20057;-84
2021/12/25 11:31:24;;;;;;;4.65;0.80;;;0.10;99.90;;;;;;4810390;29;20090;-84
2021/12/25 11:33:50;;;;;;;2.38;0.80;;;0.10;99.90;;;;;;4818474;29;20057;-83
2021/12/25 11:36:18;;;;;;;1.92;0.75;;;0.00;99.90;;;;;;4808907;29;20795;-83
2021/12/25 11:38:43;;;;;;;4.05;0.88;;;0.00;99.90;;;;;;4792156;29;20822;-83
2021/12/25 11:41:11;;;;;;;4.68;1.00;;;0.00;99.90;;;;;;4817468;29;20073;-82
2021/12/25 11:43:45;;;;;;;2.83;0.93;;;0.10;99.90;;;;;;4810379;29;20053;-83
2021/12/25 11:46:14;;;;;;;3.30;0.70;;;0.20;99.90;;;;;;4800369;29;20042;-81
2021/12/25 11:48:41;;;;;;;2.55;0.77;;;0.30;99.90;;;;;;4819013;29;20417;-82
2021/12/25 11:51:29;;;;;;;6.32;1.30;;;0.40;99.90;;;;;;4809996;29;20137;-86
2021/12/25 11:58:58;;;;;;;2.17;0.85;;;0.40;99.90;;;;;;4806783;29;20433;-83
2021/12/25 12:01:38;;;;;;;5.55;1.08;;;0.40;99.90;;;;;;4807040;29;20065;-83
2021/12/25 12:04:15;;;;;;;2.60;0.93;;;0.30;99.90;;;;;;4806857;29;20068;-83
2021/12/25 12:06:46;;;;;;;1.85;0.85;;;0.40;99.90;;;;;;4791732;29;20448;-84
2021/12/25 12:09:13;;;;;;;6.60;1.00;;;0.30;99.90;;;;;;4792352;29;20073;-83
2021/12/25 12:11:43;;;;;;;2.83;0.93;;;0.30;99.90;;;;;;4807595;29;20547;-82
2021/12/25 12:14:13;;;;;;;2.58;0.80;;;0.20;99.90;;;;;;4825549;29;20148;-83
2021/12/25 12:16:48;;;;;;;1.33;0.77;;;0.10;99.90;;;;;;4825111;29;20050;-82
2021/12/25 12:21:59;;;;;;;3.70;1.10;;;0.00;99.90;;;;;;4846709;29;20045;-79
2021/12/25 12:27:02;;;;;;;6.13;1.33;;;0.10;99.90;;;;;;4846975;29;20559;-84
2021/12/25 12:29:43;;;;;;;1.83;0.80;;;0.10;99.90;;;;;;4820687;29;20395;-81
2021/12/25 12:32:18;;;;;;;3.53;0.80;;;0.00;99.90;;;;;;4827682;29;20098;-82
2021/12/25 12:34:44;;;;;;;3.92;0.88;;;0.10;99.90;;;;;;4842168;29;20124;-83
2021/12/25 12:37:19;;;;;;;3.17;0.70;;;0.00;99.90;;;;;;4822159;29;20128;-80
2021/12/25 12:40:00;;;;;;;1.27;0.73;;;0.10;99.90;;;;;;4826418;29;20495;-78
2021/12/25 12:42:45;;;;;;;2.78;1.00;;;0.10;99.90;;;;;;4823120;29;20194;-72
2021/12/25 12:45:27;;;;;;;2.83;1.30;;;0.00;99.90;;;;;;4823269;29;20060;-73
2021/12/25 12:48:25;;;;;;;5.22;1.48;;;-0.10;99.90;;;;;;4838653;29;20046;-72
2021/12/25 12:50:53;;;;;;;;;;;-0.20;99.90;;;;;;4799423;29;20089;-73
2021/12/25 12:53:20;;;;;;;3.33;0.93;;;-0.30;99.90;;;;;;4842788;29;19924;-72
2021/12/25 12:55:48;;;;;;;3.55;0.80;;;-0.40;99.90;;;;;;4822796;29;20053;-71
2021/12/25 12:58:50;;;;;;;3.20;1.10;;;-0.50;99.90;;;;;;4839195;29;20057;-82
2021/12/25 13:01:16;;;;;;;5.20;1.25;;;-0.50;99.90;;;;;;4818187;29;20079;-78
2021/12/25 13:03:41;;;;;;;11.43;2.20;;;-0.50;99.90;;;;;;4857693;29;20050;-78
2021/12/25 13:06:12;;;;;;;2.20;1.20;;;-0.50;99.90;;;;;;4839144;29;20464;-79
2021/12/25 13:08:41;;;;;;;5.68;0.73;;;-0.40;99.90;;;;;;4841587;29;20294;-81
2021/12/25 13:11:15;;;;;;;2.05;0.90;;;-0.40;99.90;;;;;;4827681;29;20588;-80
2021/12/25 13:13:51;;;;;;;3.00;0.90;;;-0.40;99.90;;;;;;4817930;29;20057;-82
2021/12/25 13:16:18;;;;;;;1.83;0.73;;;-0.40;99.90;;;;;;4800263;29;20527;-80
2021/12/25 13:18:51;;;;;;;2.50;0.82;;;-0.40;99.90;;;;;;4827247;29;20798;-80
2021/12/25 13:21:29;;;;;;;2.17;0.90;;;-0.40;99.90;;;;;;4829310;29;20120;-80
2021/12/25 13:23:58;;;;;;;3.13;0.90;;;-0.30;99.90;;;;;;4822098;29;20094;-79
2021/12/25 13:26:45;;;;;;;3.38;0.90;;;-0.30;99.90;;;;;;4855834;29;20048;-82
2021/12/25 13:29:14;;;;;;;4.85;1.05;;;-0.20;99.90;;;;;;4831964;29;20133;-80
2021/12/25 13:31:42;;;;;;;3.70;1.10;;;-0.20;99.90;;;;;;4842468;29;20050;-80
2021/12/25 13:34:15;;;;;;;2.60;1.13;;;-0.20;99.90;;;;;;4836269;29;20117;-82
2021/12/25 13:37:00;;;;;;;2.17;1.17;;;-0.20;99.90;;;;;;4839439;29;20082;-81
2021/12/25 13:39:30;;;;;;;5.10;1.02;;;-0.20;99.90;;;;;;4844137;29;20049;-81
2021/12/25 13:42:08;;;;;;;2.92;1.38;;;-0.20;99.90;;;;;;4829298;29;20045;-80
2021/12/25 13:44:37;;;;;;;3.88;1.20;;;-0.20;99.90;;;;;;4843652;29;20038;-81
2021/12/25 13:47:24;;;;;;;3.00;1.10;;;-0.30;99.90;;;;;;4840748;29;20046;-80
2021/12/25 13:49:51;;;;;;;2.78;1.08;;;-0.30;99.90;;;;;;4820571;29;20061;-79
2021/12/25 13:52:20;;;;;;;5.82;1.80;;;-0.30;99.90;;;;;;4823913;29;20059;-82
2021/12/25 13:55:11;;;;;;;3.65;1.40;;;-0.30;99.90;;;;;;4813936;29;20670;-79
2021/12/25 13:57:51;;;;;;;3.13;1.70;;;-0.40;99.90;;;;;;4846007;29;22060;-79
2021/12/25 14:00:25;;;;;;;5.18;1.60;;;-0.40;99.90;;;;;;4836936;29;20042;-81
2021/12/25 14:02:54;;;;;;;2.83;1.50;;;-0.60;99.90;;;;;;4840654;29;20045;-80
2021/12/25 14:05:22;;;;;;;2.97;1.40;;;-0.60;99.90;;;;;;4820766;29;20045;-79
2021/12/25 14:07:49;;;;;;;4.45;1.63;;;-0.80;99.90;;;;;;4819881;29;20045;-79
2021/12/25 14:10:22;;;;;;;2.47;1.10;;;-0.80;99.90;;;;;;4840975;29;20073;-79
2021/12/25 14:12:50;;;;;;;4.32;1.23;;;-0.90;99.90;;;;;;4854466;29;20085;-81
2021/12/25 14:15:19;;;;;;;3.67;1.38;;;-1.00;99.90;;;;;;4818009;29;20057;-79
2021/12/25 14:17:47;;;;;;;5.63;2.05;;;-1.00;99.90;;;;;;4830229;29;20041;-79
2021/12/25 14:20:20;;;;;;;5.80;1.58;;;-1.10;99.90;;;;;;4839018;29;20042;-81
2021/12/25 14:22:49;;;;;;;4.57;1.83;;;-1.10;99.90;;;;;;4827707;29;20037;-80